NJE880 OEDF-EDDM
Flight info
| Callsign | NJE880 |
|---|---|
| Flight time | N/A |
| Altitude | 43000 |
| Route | TAYMA N697 KITOT L550 NOVPA N697 MENLI L677 CVO L617 NABSI M872 PLH M729 CDC M620 SOR M736 TEA L995 TIBER Y106 GITOD M726 BETOS |
| Aircraft | C700/M-SBDGHM1RWXY/LB2 |
Departure
| Time | 2026-04-15 11:19 |
|---|---|
| Airport | King Fahd International Airport (OEDF) |
Arrival
| Time | N/A |
|---|---|
| Airport | Munich Airport (EDDM) |
| Time | Latitude | Longitude | Altitude | Speed | Heading |
|---|---|---|---|---|---|
| 2026-04-15 10:52 | 26.46331 | 49.79413 | 79 ft | 0 kts | 265° |
| 2026-04-15 11:04 | 26.46332 | 49.79428 | 81 ft | 4 kts | 265° |
| 2026-04-15 11:05 | 26.46335 | 49.79458 | 79 ft | 4 kts | 261° |
| 2026-04-15 11:05 | 26.46341 | 49.79487 | 81 ft | 4 kts | 250° |
| 2026-04-15 11:05 | 26.46355 | 49.79509 | 81 ft | 3 kts | 184° |
| 2026-04-15 11:05 | 26.46363 | 49.79508 | 80 ft | 0 kts | 175° |
| 2026-04-15 11:12 | 26.46362 | 49.79508 | 106 ft | 1 kts | 175° |
| 2026-04-15 11:12 | 26.46328 | 49.79513 | 80 ft | 8 kts | 177° |
| 2026-04-15 11:12 | 26.46254 | 49.79517 | 80 ft | 15 kts | 176° |
| 2026-04-15 11:13 | 26.46129 | 49.79532 | 79 ft | 19 kts | 166° |
| 2026-04-15 11:13 | 26.46027 | 49.79563 | 82 ft | 3 kts | 164° |
| 2026-04-15 11:15 | 26.46015 | 49.79566 | 79 ft | 5 kts | 162° |
| 2026-04-15 11:15 | 26.45955 | 49.79554 | 79 ft | 14 kts | 226° |
| 2026-04-15 11:15 | 26.45927 | 49.79472 | 81 ft | 6 kts | 254° |
| 2026-04-15 11:16 | 26.45908 | 49.79412 | 80 ft | 11 kts | 237° |
| 2026-04-15 11:16 | 26.45821 | 49.79400 | 79 ft | 17 kts | 165° |
| 2026-04-15 11:16 | 26.45685 | 49.79443 | 81 ft | 24 kts | 164° |
| 2026-04-15 11:16 | 26.45531 | 49.79490 | 80 ft | 17 kts | 165° |
| 2026-04-15 11:17 | 26.45455 | 49.79445 | 79 ft | 13 kts | 255° |
| 2026-04-15 11:17 | 26.45431 | 49.79342 | 80 ft | 14 kts | 255° |
| 2026-04-15 11:17 | 26.45414 | 49.79232 | 80 ft | 15 kts | 280° |
| 2026-04-15 11:17 | 26.45457 | 49.79188 | 79 ft | 0 kts | 343° |
| 2026-04-15 11:18 | 26.45635 | 49.79132 | 81 ft | 69 kts | 344° |
| 2026-04-15 11:18 | 26.46353 | 49.78903 | 85 ft | 143 kts | 345° |
| 2026-04-15 11:18 | 26.47495 | 49.78572 | 549 ft | 185 kts | 344° |
| 2026-04-15 11:19 | 26.48745 | 49.78202 | 1719 ft | 190 kts | 345° |
| 2026-04-15 11:19 | 26.50022 | 49.77776 | 2915 ft | 194 kts | 341° |
| 2026-04-15 11:19 | 26.51398 | 49.77321 | 3790 ft | 218 kts | 343° |
| 2026-04-15 11:19 | 26.52955 | 49.76861 | 4554 ft | 243 kts | 342° |
| 2026-04-15 11:20 | 26.54449 | 49.76046 | 5955 ft | 239 kts | 328° |
| 2026-04-15 11:20 | 26.55778 | 49.74897 | 7226 ft | 248 kts | 317° |
| 2026-04-15 11:20 | 26.56881 | 49.73360 | 8329 ft | 260 kts | 304° |
| 2026-04-15 11:20 | 26.57670 | 49.71491 | 9456 ft | 273 kts | 291° |
| 2026-04-15 11:21 | 26.58106 | 49.69374 | 10430 ft | 289 kts | 284° |
| 2026-04-15 11:21 | 26.58540 | 49.67075 | 11036 ft | 317 kts | 285° |
| 2026-04-15 11:21 | 26.59031 | 49.64562 | 11628 ft | 344 kts | 284° |
| 2026-04-15 11:21 | 26.59526 | 49.61905 | 12711 ft | 352 kts | 283° |
| 2026-04-15 11:22 | 26.60026 | 49.59199 | 13902 ft | 359 kts | 283° |
| 2026-04-15 11:22 | 26.60550 | 49.56451 | 14898 ft | 365 kts | 284° |
| 2026-04-15 11:22 | 26.61082 | 49.53650 | 15918 ft | 371 kts | 283° |
| 2026-04-15 11:22 | 26.61617 | 49.50802 | 16913 ft | 377 kts | 283° |
| 2026-04-15 11:23 | 26.62159 | 49.47913 | 17913 ft | 383 kts | 284° |
| 2026-04-15 11:23 | 26.62714 | 49.44973 | 18824 ft | 389 kts | 284° |
| 2026-04-15 11:23 | 26.63272 | 49.42001 | 19728 ft | 392 kts | 284° |
| 2026-04-15 11:23 | 26.63833 | 49.39006 | 20636 ft | 396 kts | 284° |
| 2026-04-15 11:24 | 26.64400 | 49.35983 | 21530 ft | 399 kts | 284° |
| 2026-04-15 11:24 | 26.64970 | 49.32936 | 22377 ft | 402 kts | 284° |
| 2026-04-15 11:24 | 26.65544 | 49.29870 | 23200 ft | 406 kts | 285° |
| 2026-04-15 11:24 | 26.66123 | 49.26769 | 23948 ft | 409 kts | 285° |
| 2026-04-15 11:25 | 26.66706 | 49.23639 | 24646 ft | 412 kts | 284° |
| 2026-04-15 11:25 | 26.67292 | 49.20491 | 25355 ft | 416 kts | 284° |
| 2026-04-15 11:25 | 26.67885 | 49.17310 | 26040 ft | 420 kts | 284° |
| 2026-04-15 11:25 | 26.68482 | 49.14096 | 26696 ft | 423 kts | 283° |
| 2026-04-15 11:26 | 26.69082 | 49.10858 | 27333 ft | 427 kts | 283° |
| 2026-04-15 11:26 | 26.69679 | 49.07643 | 27984 ft | 428 kts | 281° |
| 2026-04-15 11:26 | 26.70283 | 49.04406 | 28855 ft | 426 kts | 280° |
| 2026-04-15 11:26 | 26.70886 | 49.01139 | 29453 ft | 431 kts | 280° |
| 2026-04-15 11:27 | 26.71493 | 48.97849 | 30073 ft | 434 kts | 280° |
| 2026-04-15 11:27 | 26.72109 | 48.94525 | 30609 ft | 438 kts | 280° |
| 2026-04-15 11:27 | 26.72728 | 48.91181 | 31152 ft | 440 kts | 280° |
| 2026-04-15 11:27 | 26.73343 | 48.87840 | 31870 ft | 437 kts | 280° |
| 2026-04-15 11:28 | 26.73955 | 48.84514 | 32538 ft | 436 kts | 280° |
| 2026-04-15 11:28 | 26.74565 | 48.81194 | 33205 ft | 435 kts | 280° |
| 2026-04-15 11:28 | 26.75173 | 48.77890 | 33871 ft | 433 kts | 280° |
| 2026-04-15 11:28 | 26.75776 | 48.74601 | 34447 ft | 431 kts | 279° |
| 2026-04-15 11:29 | 26.76320 | 48.71312 | 34991 ft | 428 kts | 276° |
| 2026-04-15 11:29 | 26.76494 | 48.67998 | 35530 ft | 425 kts | 269° |
| 2026-04-15 11:29 | 26.76402 | 48.64707 | 36032 ft | 423 kts | 267° |
| 2026-04-15 11:29 | 26.76319 | 48.61422 | 36502 ft | 422 kts | 268° |
| 2026-04-15 11:30 | 26.76245 | 48.58142 | 36938 ft | 421 kts | 267° |
| 2026-04-15 11:30 | 26.76158 | 48.54877 | 37350 ft | 419 kts | 267° |
| 2026-04-15 11:30 | 26.76065 | 48.51622 | 37740 ft | 418 kts | 267° |
| 2026-04-15 11:30 | 26.76006 | 48.49464 | 37976 ft | 418 kts | 267° |
| 2026-04-15 11:31 | 26.75921 | 48.46219 | 38320 ft | 417 kts | 267° |
| 2026-04-15 11:31 | 26.75803 | 48.41882 | 38723 ft | 417 kts | 267° |
| 2026-04-15 11:31 | 26.75743 | 48.39737 | 38892 ft | 416 kts | 267° |
| 2026-04-15 11:31 | 26.75653 | 48.36504 | 39124 ft | 416 kts | 267° |
| 2026-04-15 11:32 | 26.75562 | 48.33263 | 39358 ft | 416 kts | 267° |
| 2026-04-15 11:32 | 26.75474 | 48.30039 | 39594 ft | 415 kts | 267° |
| 2026-04-15 11:32 | 26.75385 | 48.26817 | 39831 ft | 414 kts | 267° |
| 2026-04-15 11:32 | 26.75294 | 48.23602 | 40062 ft | 413 kts | 267° |
| 2026-04-15 11:33 | 26.75202 | 48.20388 | 40288 ft | 412 kts | 267° |
| 2026-04-15 11:33 | 26.75111 | 48.17187 | 40500 ft | 412 kts | 267° |
| 2026-04-15 11:33 | 26.75019 | 48.13985 | 40714 ft | 411 kts | 267° |
| 2026-04-15 11:33 | 26.74926 | 48.10796 | 40921 ft | 410 kts | 266° |
| 2026-04-15 11:34 | 26.74832 | 48.07610 | 41121 ft | 409 kts | 267° |
| 2026-04-15 11:34 | 26.74739 | 48.04430 | 41301 ft | 409 kts | 267° |
| 2026-04-15 11:34 | 26.74644 | 48.01254 | 41494 ft | 408 kts | 267° |
| 2026-04-15 11:34 | 26.74549 | 47.98082 | 41674 ft | 408 kts | 267° |
| 2026-04-15 11:35 | 26.74454 | 47.94918 | 41848 ft | 407 kts | 267° |
| 2026-04-15 11:35 | 26.74358 | 47.91753 | 42014 ft | 407 kts | 267° |
| 2026-04-15 11:35 | 26.74268 | 47.88599 | 42176 ft | 406 kts | 268° |
| 2026-04-15 11:35 | 26.74402 | 47.85434 | 42317 ft | 407 kts | 272° |
| 2026-04-15 11:36 | 26.74573 | 47.82282 | 42460 ft | 406 kts | 271° |
| 2026-04-15 11:36 | 26.74711 | 47.79122 | 42598 ft | 406 kts | 271° |
| 2026-04-15 11:36 | 26.74864 | 47.75972 | 42736 ft | 406 kts | 272° |
| 2026-04-15 11:36 | 26.75033 | 47.72820 | 42864 ft | 406 kts | 272° |
| 2026-04-15 11:37 | 26.75194 | 47.69670 | 42998 ft | 405 kts | 272° |
| 2026-04-15 11:37 | 26.75346 | 47.66517 | 43067 ft | 407 kts | 272° |
| 2026-04-15 11:37 | 26.75660 | 47.60163 | 43069 ft | 411 kts | 272° |
| 2026-04-15 11:38 | 26.75973 | 47.53780 | 43081 ft | 416 kts | 272° |
| 2026-04-15 11:38 | 26.76287 | 47.47287 | 43083 ft | 420 kts | 272° |
| 2026-04-15 11:39 | 26.76586 | 47.41096 | 43086 ft | 424 kts | 272° |
| 2026-04-15 11:39 | 26.77240 | 47.34513 | 43089 ft | 428 kts | 279° |
| 2026-04-15 11:40 | 26.78247 | 47.27945 | 43090 ft | 428 kts | 278° |
| 2026-04-15 11:40 | 26.79263 | 47.21376 | 43090 ft | 428 kts | 279° |
| 2026-04-15 11:41 | 26.80270 | 47.14810 | 43089 ft | 428 kts | 278° |
| 2026-04-15 11:41 | 26.81275 | 47.08247 | 43094 ft | 428 kts | 279° |
| 2026-04-15 11:42 | 26.82276 | 47.01689 | 43091 ft | 427 kts | 279° |
| 2026-04-15 11:42 | 26.83271 | 46.95135 | 43086 ft | 427 kts | 281° |
| 2026-04-15 11:43 | 26.84268 | 46.88584 | 43092 ft | 427 kts | 281° |
| 2026-04-15 11:43 | 26.85255 | 46.82034 | 43097 ft | 427 kts | 281° |
| 2026-04-15 11:44 | 26.86244 | 46.75485 | 43093 ft | 426 kts | 281° |
| 2026-04-15 11:44 | 26.87225 | 46.68940 | 43104 ft | 426 kts | 281° |
| 2026-04-15 11:45 | 26.88198 | 46.62444 | 43096 ft | 426 kts | 281° |
| 2026-04-15 11:45 | 26.89173 | 46.55907 | 43095 ft | 425 kts | 281° |
| 2026-04-15 11:46 | 26.90144 | 46.49380 | 43099 ft | 425 kts | 281° |
| 2026-04-15 11:46 | 26.91111 | 46.42856 | 43105 ft | 424 kts | 281° |
| 2026-04-15 11:47 | 26.92074 | 46.36340 | 43101 ft | 423 kts | 281° |
| 2026-04-15 11:47 | 26.93041 | 46.29832 | 43100 ft | 423 kts | 281° |
| 2026-04-15 11:48 | 26.94001 | 46.23325 | 43100 ft | 423 kts | 281° |
| 2026-04-15 11:48 | 26.94958 | 46.16824 | 43099 ft | 423 kts | 281° |
| 2026-04-15 11:49 | 26.95911 | 46.10327 | 43103 ft | 422 kts | 281° |
| 2026-04-15 11:49 | 26.96860 | 46.03838 | 43098 ft | 422 kts | 281° |
| 2026-04-15 11:50 | 26.97804 | 45.97356 | 43092 ft | 421 kts | 281° |
| 2026-04-15 11:50 | 26.98745 | 45.90884 | 43102 ft | 420 kts | 281° |
| 2026-04-15 11:51 | 26.99681 | 45.84419 | 43097 ft | 420 kts | 281° |
| 2026-04-15 11:51 | 27.00612 | 45.77961 | 43091 ft | 420 kts | 281° |
| 2026-04-15 11:52 | 27.01541 | 45.71507 | 43089 ft | 419 kts | 281° |
| 2026-04-15 11:52 | 27.02464 | 45.65065 | 43089 ft | 418 kts | 281° |
| 2026-04-15 11:53 | 27.03383 | 45.58631 | 43091 ft | 418 kts | 281° |
| 2026-04-15 11:53 | 27.04300 | 45.52196 | 43095 ft | 417 kts | 281° |
| 2026-04-15 11:54 | 27.05214 | 45.45769 | 43091 ft | 417 kts | 281° |
| 2026-04-15 11:54 | 27.05972 | 45.39315 | 43100 ft | 417 kts | 279° |
| 2026-04-15 11:55 | 27.06701 | 45.32858 | 43091 ft | 417 kts | 279° |
| 2026-04-15 11:55 | 27.07419 | 45.26409 | 43094 ft | 416 kts | 279° |
| 2026-04-15 11:56 | 27.08135 | 45.19967 | 43094 ft | 416 kts | 279° |
| 2026-04-15 11:56 | 27.08842 | 45.13579 | 43091 ft | 415 kts | 279° |
| 2026-04-15 11:57 | 27.09903 | 45.03946 | 43095 ft | 414 kts | 279° |
| 2026-04-15 11:58 | 27.10605 | 44.97529 | 43092 ft | 414 kts | 279° |
| 2026-04-15 11:58 | 27.11305 | 44.91113 | 43091 ft | 414 kts | 279° |
| 2026-04-15 11:59 | 27.12000 | 44.84702 | 43087 ft | 414 kts | 279° |
| 2026-04-15 11:59 | 27.12693 | 44.78298 | 43085 ft | 413 kts | 279° |
| 2026-04-15 12:00 | 27.13382 | 44.71899 | 43082 ft | 413 kts | 279° |
| 2026-04-15 12:00 | 27.14069 | 44.65500 | 43082 ft | 413 kts | 279° |
| 2026-04-15 12:01 | 27.14752 | 44.59108 | 43080 ft | 412 kts | 279° |
| 2026-04-15 12:01 | 27.15432 | 44.52723 | 43083 ft | 412 kts | 279° |
| 2026-04-15 12:02 | 27.16108 | 44.46343 | 43083 ft | 411 kts | 279° |
| 2026-04-15 12:02 | 27.16780 | 44.39970 | 43076 ft | 411 kts | 279° |
| 2026-04-15 12:03 | 27.17447 | 44.33594 | 43086 ft | 411 kts | 279° |
| 2026-04-15 12:03 | 27.18107 | 44.27210 | 43076 ft | 411 kts | 279° |
| 2026-04-15 12:04 | 27.18766 | 44.20834 | 43078 ft | 411 kts | 279° |
| 2026-04-15 12:04 | 27.19422 | 44.14449 | 43080 ft | 411 kts | 279° |
| 2026-04-15 12:05 | 27.20070 | 44.08114 | 43073 ft | 411 kts | 279° |
| 2026-04-15 12:05 | 27.20719 | 44.01734 | 43072 ft | 411 kts | 279° |
| 2026-04-15 12:06 | 27.21364 | 43.95365 | 43075 ft | 410 kts | 279° |
| 2026-04-15 12:06 | 27.22008 | 43.88996 | 43072 ft | 410 kts | 279° |
| 2026-04-15 12:07 | 27.22646 | 43.82630 | 43070 ft | 410 kts | 279° |
| 2026-04-15 12:07 | 27.23283 | 43.76268 | 43070 ft | 410 kts | 279° |
| 2026-04-15 12:08 | 27.23915 | 43.69906 | 43071 ft | 410 kts | 279° |
| 2026-04-15 12:08 | 27.24548 | 43.63544 | 43070 ft | 410 kts | 279° |
| 2026-04-15 12:09 | 27.25176 | 43.57185 | 43071 ft | 409 kts | 279° |
| 2026-04-15 12:09 | 27.25802 | 43.50823 | 43071 ft | 409 kts | 279° |
| 2026-04-15 12:10 | 27.26425 | 43.44462 | 43079 ft | 409 kts | 279° |
| 2026-04-15 12:10 | 27.27046 | 43.38097 | 43073 ft | 410 kts | 279° |
| 2026-04-15 12:11 | 27.27664 | 43.31725 | 43076 ft | 410 kts | 278° |
| 2026-04-15 12:11 | 27.28280 | 43.25347 | 43078 ft | 411 kts | 279° |
| 2026-04-15 12:12 | 27.28889 | 43.19009 | 43076 ft | 410 kts | 278° |
| 2026-04-15 12:12 | 27.29499 | 43.12631 | 43077 ft | 410 kts | 278° |
| 2026-04-15 12:13 | 27.30105 | 43.06256 | 43079 ft | 410 kts | 278° |
| 2026-04-15 12:13 | 27.30710 | 42.99878 | 43079 ft | 410 kts | 278° |
| 2026-04-15 12:14 | 27.31311 | 42.93498 | 43084 ft | 410 kts | 278° |
| 2026-04-15 12:14 | 27.31908 | 42.87126 | 43087 ft | 409 kts | 278° |
| 2026-04-15 12:15 | 27.32503 | 42.80761 | 43087 ft | 409 kts | 278° |
| 2026-04-15 12:15 | 27.33092 | 42.74402 | 43091 ft | 408 kts | 278° |
| 2026-04-15 12:16 | 27.33679 | 42.68056 | 43091 ft | 407 kts | 278° |
| 2026-04-15 12:16 | 27.34261 | 42.61723 | 43093 ft | 407 kts | 278° |
| 2026-04-15 12:17 | 27.34840 | 42.55403 | 43091 ft | 406 kts | 278° |
| 2026-04-15 12:17 | 27.35413 | 42.49091 | 43098 ft | 405 kts | 278° |
| 2026-04-15 12:18 | 27.35985 | 42.42788 | 43092 ft | 405 kts | 278° |
| 2026-04-15 12:18 | 27.36551 | 42.36489 | 43097 ft | 404 kts | 278° |
| 2026-04-15 12:19 | 27.37111 | 42.30236 | 43101 ft | 404 kts | 278° |
| 2026-04-15 12:19 | 27.37673 | 42.23940 | 43101 ft | 405 kts | 278° |
| 2026-04-15 12:20 | 27.38235 | 42.17601 | 43104 ft | 405 kts | 278° |
| 2026-04-15 12:20 | 27.38786 | 42.11339 | 43104 ft | 405 kts | 278° |
| 2026-04-15 12:21 | 27.39339 | 42.05042 | 43103 ft | 405 kts | 278° |
| 2026-04-15 12:21 | 27.39889 | 41.98742 | 43101 ft | 405 kts | 278° |
| 2026-04-15 12:22 | 27.40348 | 41.93460 | 43098 ft | 405 kts | 278° |
| 2026-04-15 12:22 | 27.40892 | 41.87163 | 43095 ft | 404 kts | 278° |
| 2026-04-15 12:23 | 27.41433 | 41.80876 | 43101 ft | 404 kts | 278° |
| 2026-04-15 12:23 | 27.41970 | 41.74596 | 43097 ft | 403 kts | 278° |
| 2026-04-15 12:24 | 27.42553 | 41.68331 | 43102 ft | 401 kts | 281° |
| 2026-04-15 12:24 | 27.43767 | 41.62222 | 43101 ft | 400 kts | 284° |
| 2026-04-15 12:25 | 27.45002 | 41.56124 | 43105 ft | 399 kts | 284° |
| 2026-04-15 12:25 | 27.46242 | 41.50100 | 43103 ft | 397 kts | 284° |
| 2026-04-15 12:26 | 27.47478 | 41.44037 | 43098 ft | 397 kts | 284° |
| 2026-04-15 12:26 | 27.48714 | 41.37974 | 43098 ft | 397 kts | 284° |
| 2026-04-15 12:27 | 27.49946 | 41.31918 | 43098 ft | 397 kts | 284° |
| 2026-04-15 12:27 | 27.51173 | 41.25867 | 43092 ft | 396 kts | 284° |
| 2026-04-15 12:28 | 27.52398 | 41.19818 | 43091 ft | 396 kts | 284° |
| 2026-04-15 12:28 | 27.53619 | 41.13767 | 43083 ft | 396 kts | 284° |
| 2026-04-15 12:29 | 27.54838 | 41.07715 | 43081 ft | 396 kts | 284° |
| 2026-04-15 12:29 | 27.56054 | 41.01666 | 43081 ft | 396 kts | 284° |
| 2026-04-15 12:30 | 27.57265 | 40.95625 | 43077 ft | 395 kts | 284° |
| 2026-04-15 12:30 | 27.58469 | 40.89593 | 43069 ft | 395 kts | 283° |
| 2026-04-15 12:31 | 27.59669 | 40.83562 | 43072 ft | 394 kts | 283° |
| 2026-04-15 12:31 | 27.60867 | 40.77527 | 43067 ft | 395 kts | 283° |
| 2026-04-15 12:32 | 27.62063 | 40.71490 | 43058 ft | 394 kts | 283° |
| 2026-04-15 12:32 | 27.63256 | 40.65455 | 43063 ft | 395 kts | 283° |
| 2026-04-15 12:33 | 27.64447 | 40.59412 | 43058 ft | 395 kts | 283° |
| 2026-04-15 12:33 | 27.65636 | 40.53369 | 43057 ft | 395 kts | 283° |
| 2026-04-15 12:34 | 27.66823 | 40.47317 | 43062 ft | 395 kts | 283° |
| 2026-04-15 12:34 | 27.68007 | 40.41267 | 43062 ft | 395 kts | 283° |
| 2026-04-15 12:35 | 27.69182 | 40.35251 | 43060 ft | 395 kts | 283° |
| 2026-04-15 12:35 | 27.70360 | 40.29201 | 43062 ft | 394 kts | 283° |
| 2026-04-15 12:36 | 27.71535 | 40.23157 | 43057 ft | 394 kts | 283° |
| 2026-04-15 12:36 | 27.72437 | 40.18499 | 43055 ft | 394 kts | 283° |